Airfield :
LOGIN :

Register | Disclaimer

   EN    FR    IT 

 










Legend :    VFR   Marginal VFR   IFR   Intensive IFR   Very Intensive IFR
Visi :
Ceiling :
>= 8 km
>= 3000ft
5 to 8 km
1000 to 3000 ft
1500m to 5 km
500 to 1000 ft
800 to 1500m
200 to 500 ft
< 800m
< 200 ft
Symbols :   Thunderstorms  Fog  Heavy snow  Heavy precipitations  Wind > 20 kt
SIGMETs :     Misc.  Thunderstorms  Icing  Turbulence  Mountain Waves  Volcanic Ashes






- Airport Elevation : 353 ft
- IATA code : ZAG


LDZA - Zagreb Pleso

CURRENT METAR :
  • 180430Z 22003KT 190V250 CAVOK 17/16 Q1017 NOSIG

EXPIRED METARs :
  • 180400Z 25002KT CAVOK 16/15 Q1017 NOSIG
  • 180330Z 25003KT 9999 MIFG NSC 16/15 Q1017 NOSIG
  • 180300Z VRB02KT CAVOK 16/15 Q1017 NOSIG
  • 180230Z 23003KT 9999 MIFG NSC 16/15 Q1016 NOSIG
  • 180200Z VRB01KT CAVOK 16/15 Q1016 NOSIG
  • 180130Z 24002KT CAVOK 17/15 Q1016 NOSIG
  • 180100Z VRB02KT CAVOK 17/15 Q1016 NOSIG
  • 180030Z VRB01KT CAVOK 18/16 Q1016 NOSIG
  • 180000Z VRB02KT CAVOK 18/17 Q1016 NOSIG
  • 172330Z VRB02KT CAVOK 18/16 Q1016 NOSIG

TAF TAF LDZA
Valid from the 18 at 00:00 until the 19 at 00:00 UTC


172325Z 1800/1900 24003KT CAVOK TX32/1814Z TN15/1803Z
TEMPO 1817/1900 24007KT
ATIS : +385 1 6-259-214



MET'MAP, your aeronautical weather chart ! - Copyright ORBIFLY December 2007 - Disclaimer

ORBIFLY MET'MAP TEAM :

Programming & Development : Alexandra Zaïnal
Original concept : Baudouin d'Aumeries
Technical & hardware support : Manuel Goepfert
Assistance : Marc-Olivier Méhu




SOURCES & CREDITS :

   NOAA